sensor_id;sensor_type;location;lat;lon;timestamp;pressure;altitude;pressure_sealevel;temperature;humidity
55656;BME280;41530;52.382;5.270;2023-01-28T00:01:21;103262.19;;;13.52;50.16
55656;BME280;41530;52.382;5.270;2023-01-28T00:03:51;103264.81;;;13.52;50.20
55656;BME280;41530;52.382;5.270;2023-01-28T00:06:18;103269.13;;;13.54;50.17
55656;BME280;41530;52.382;5.270;2023-01-28T00:08:45;103263.97;;;13.51;50.00
55656;BME280;41530;52.382;5.270;2023-01-28T00:11:12;103255.03;;;13.54;49.96
55656;BME280;41530;52.382;5.270;2023-01-28T00:13:40;103268.31;;;13.52;50.01
55656;BME280;41530;52.382;5.270;2023-01-28T00:16:07;103260.38;;;13.52;50.09
55656;BME280;41530;52.382;5.270;2023-01-28T00:18:35;103268.38;;;13.51;50.00
55656;BME280;41530;52.382;5.270;2023-01-28T00:21:06;103259.59;;;13.50;49.77
55656;BME280;41530;52.382;5.270;2023-01-28T00:23:35;103259.66;;;13.49;49.75
55656;BME280;41530;52.382;5.270;2023-01-28T00:26:06;103260.53;;;13.49;49.99
55656;BME280;41530;52.382;5.270;2023-01-28T00:28:33;103260.44;;;13.51;49.89
55656;BME280;41530;52.382;5.270;2023-01-28T00:31:08;103252.59;;;13.49;49.83
55656;BME280;41530;52.382;5.270;2023-01-28T00:33:36;103255.28;;;13.48;49.82
55656;BME280;41530;52.382;5.270;2023-01-28T00:36:04;103254.38;;;13.49;49.84
55656;BME280;41530;52.382;5.270;2023-01-28T00:38:32;103256.22;;;13.47;49.77
55656;BME280;41530;52.382;5.270;2023-01-28T00:41:10;103253.72;;;13.44;49.67
55656;BME280;41530;52.382;5.270;2023-01-28T00:43:39;103254.50;;;13.46;49.82
55656;BME280;41530;52.382;5.270;2023-01-28T00:46:07;103257.13;;;13.46;49.66
55656;BME280;41530;52.382;5.270;2023-01-28T00:48:37;103251.16;;;13.42;49.46
55656;BME280;41530;52.382;5.270;2023-01-28T00:51:06;103249.31;;;13.44;49.50
55656;BME280;41530;52.382;5.270;2023-01-28T00:53:33;103251.94;;;13.44;49.67
55656;BME280;41530;52.382;5.270;2023-01-28T00:56:03;103244.25;;;13.38;49.41
55656;BME280;41530;52.382;5.270;2023-01-28T00:58:30;103260.81;;;13.43;49.63
55656;BME280;41530;52.382;5.270;2023-01-28T01:03:34;103252.00;;;13.43;49.45
55656;BME280;41530;52.382;5.270;2023-01-28T01:06:01;103252.00;;;13.43;49.68
55656;BME280;41530;52.382;5.270;2023-01-28T01:08:27;103249.44;;;13.41;49.54
55656;BME280;41530;52.382;5.270;2023-01-28T01:11:01;103247.78;;;13.39;49.33
55656;BME280;41530;52.382;5.270;2023-01-28T01:13:28;103248.63;;;13.39;49.31
55656;BME280;41530;52.382;5.270;2023-01-28T01:16:14;103253.00;;;13.40;49.38
55656;BME280;41530;52.382;5.270;2023-01-28T01:18:44;103246.91;;;13.38;49.41
55656;BME280;41530;52.382;5.270;2023-01-28T01:21:14;103256.63;;;13.38;49.19
55656;BME280;41530;52.382;5.270;2023-01-28T01:23:43;103258.34;;;13.39;49.28
55656;BME280;41530;52.382;5.270;2023-01-28T01:26:11;103255.75;;;13.37;49.23
55656;BME280;41530;52.382;5.270;2023-01-28T01:28:38;103256.63;;;13.38;49.39
55656;BME280;41530;52.382;5.270;2023-01-28T01:31:09;103255.75;;;13.37;49.35
55656;BME280;41530;52.382;5.270;2023-01-28T01:33:37;103257.47;;;13.38;49.41
55656;BME280;41530;52.382;5.270;2023-01-28T01:36:07;103255.81;;;13.36;49.29
55656;BME280;41530;52.382;5.270;2023-01-28T01:38:34;103255.88;;;13.34;49.44
55656;BME280;41530;52.382;5.270;2023-01-28T01:41:03;103259.50;;;13.32;49.36
55656;BME280;41530;52.382;5.270;2023-01-28T01:46:47;103268.31;;;13.32;49.20
55656;BME280;41530;52.382;5.270;2023-01-28T01:49:27;103273.59;;;13.32;49.00
55656;BME280;41530;52.382;5.270;2023-01-28T01:51:59;103264.03;;;13.30;48.97
55656;BME280;41530;52.382;5.270;2023-01-28T01:54:29;103258.69;;;13.31;49.21
55656;BME280;41530;52.382;5.270;2023-01-28T01:56:58;103260.59;;;13.28;49.13
55656;BME280;41530;52.382;5.270;2023-01-28T01:59:29;103264.91;;;13.30;49.19
55656;BME280;41530;52.382;5.270;2023-01-28T02:02:03;103264.97;;;13.29;49.23
55656;BME280;41530;52.382;5.270;2023-01-28T02:04:35;103259.84;;;13.24;49.13
55656;BME280;41530;52.382;5.270;2023-01-28T02:07:04;103268.53;;;13.28;49.29
55656;BME280;41530;52.382;5.270;2023-01-28T02:09:34;103263.34;;;13.25;49.14
55656;BME280;41530;52.382;5.270;2023-01-28T02:12:07;103271.22;;;13.26;48.97
55656;BME280;41530;52.382;5.270;2023-01-28T02:14:41;103272.09;;;13.27;48.86
55656;BME280;41530;52.382;5.270;2023-01-28T02:17:09;103273.81;;;13.28;49.08
55656;BME280;41530;52.382;5.270;2023-01-28T02:19:42;103278.28;;;13.26;49.16
55656;BME280;41530;52.382;5.270;2023-01-28T02:27:36;103283.75;;;13.21;48.99
55656;BME280;41530;52.382;5.270;2023-01-28T02:30:21;103292.50;;;13.23;48.73
55656;BME280;41530;52.382;5.270;2023-01-28T02:32:56;103285.50;;;13.22;49.02
55656;BME280;41530;52.382;5.270;2023-01-28T02:35:38;103282.84;;;13.22;49.10
55656;BME280;41530;52.382;5.270;2023-01-28T02:38:10;103288.13;;;13.22;48.97
55656;BME280;41530;52.382;5.270;2023-01-28T02:40:42;103284.63;;;13.22;49.11
55656;BME280;41530;52.382;5.270;2023-01-28T02:43:32;103283.75;;;13.21;49.01
55656;BME280;41530;52.382;5.270;2023-01-28T02:46:02;103278.47;;;13.21;48.89
55656;BME280;41530;52.382;5.270;2023-01-28T02:48:54;103277.63;;;13.20;49.18
55656;BME280;41530;52.382;5.270;2023-01-28T02:51:32;103282.09;;;13.18;49.18
55656;BME280;41530;52.382;5.270;2023-01-28T02:54:10;103276.00;;;13.18;48.81
55656;BME280;41530;52.382;5.270;2023-01-28T02:59:26;103269.91;;;13.16;48.82
55656;BME280;41530;52.382;5.270;2023-01-28T03:02:18;103269.91;;;13.16;48.60
55656;BME280;41530;52.382;5.270;2023-01-28T03:04:51;103274.34;;;13.15;49.08
55656;BME280;41530;52.382;5.270;2023-01-28T03:07:22;103278.75;;;13.15;48.85
55656;BME280;41530;52.382;5.270;2023-01-28T03:09:53;103276.13;;;13.15;48.86
55656;BME280;41530;52.382;5.270;2023-01-28T03:12:26;103281.41;;;13.15;48.77
55656;BME280;41530;52.382;5.270;2023-01-28T03:15:18;103278.78;;;13.13;48.79
55656;BME280;41530;52.382;5.270;2023-01-28T03:18:15;103279.69;;;13.12;48.94
55656;BME280;41530;52.382;5.270;2023-01-28T03:23:59;103278.84;;;13.12;48.38
55656;BME280;41530;52.382;5.270;2023-01-28T03:26:55;103265.69;;;13.10;49.01
55656;BME280;41530;52.382;5.270;2023-01-28T03:29:42;103269.25;;;13.09;48.88
55656;BME280;41530;52.382;5.270;2023-01-28T03:32:28;103267.59;;;13.07;48.67
55656;BME280;41530;52.382;5.270;2023-01-28T03:35:15;103267.53;;;13.08;48.70
55656;BME280;41530;52.382;5.270;2023-01-28T03:38:03;103266.72;;;13.06;48.77
55656;BME280;41530;52.382;5.270;2023-01-28T03:40:54;103273.75;;;13.07;48.69
55656;BME280;41530;52.382;5.270;2023-01-28T03:43:22;103277.31;;;13.06;48.90
55656;BME280;41530;52.382;5.270;2023-01-28T03:45:49;103277.31;;;13.06;48.71
55656;BME280;41530;52.382;5.270;2023-01-28T03:48:22;103279.88;;;13.08;48.84
55656;BME280;41530;52.382;5.270;2023-01-28T03:50:50;103284.31;;;13.07;48.71
55656;BME280;41530;52.382;5.270;2023-01-28T03:53:18;103286.09;;;13.07;48.69
55656;BME280;41530;52.382;5.270;2023-01-28T03:55:46;103282.59;;;13.06;48.84
55656;BME280;41530;52.382;5.270;2023-01-28T03:58:14;103298.44;;;13.06;48.87
55656;BME280;41530;52.382;5.270;2023-01-28T04:00:42;103296.72;;;13.05;48.60
55656;BME280;41530;52.382;5.270;2023-01-28T04:03:10;103293.16;;;13.06;48.65
55656;BME280;41530;52.382;5.270;2023-01-28T04:05:43;103302.00;;;13.05;48.66
55656;BME280;41530;52.382;5.270;2023-01-28T04:08:10;103302.88;;;13.06;48.79
55656;BME280;41530;52.382;5.270;2023-01-28T04:10:41;103312.50;;;13.07;48.85
55656;BME280;41530;52.382;5.270;2023-01-28T04:13:09;103307.28;;;13.05;48.88
55656;BME280;41530;52.382;5.270;2023-01-28T04:15:38;103308.16;;;13.06;48.52
55656;BME280;41530;52.382;5.270;2023-01-28T04:18:05;103303.81;;;13.05;48.64
55656;BME280;41530;52.382;5.270;2023-01-28T04:20:32;103305.59;;;13.04;48.74
55656;BME280;41530;52.382;5.270;2023-01-28T04:22:58;103301.22;;;13.03;48.89
55656;BME280;41530;52.382;5.270;2023-01-28T04:25:25;103305.66;;;13.03;48.60
55656;BME280;41530;52.382;5.270;2023-01-28T04:27:52;103296.88;;;13.02;48.55
55656;BME280;41530;52.382;5.270;2023-01-28T04:30:19;103296.06;;;13.00;48.69
55656;BME280;41530;52.382;5.270;2023-01-28T04:32:46;103298.72;;;13.00;48.40
55656;BME280;41530;52.382;5.270;2023-01-28T04:35:13;103291.69;;;12.99;48.64
55656;BME280;41530;52.382;5.270;2023-01-28T04:37:41;103297.84;;;13.00;48.68
55656;BME280;41530;52.382;5.270;2023-01-28T04:40:09;103294.41;;;12.98;48.42
55656;BME280;41530;52.382;5.270;2023-01-28T04:42:36;103300.50;;;13.00;48.54
55656;BME280;41530;52.382;5.270;2023-01-28T04:45:04;103296.06;;;13.00;48.59
55656;BME280;41530;52.382;5.270;2023-01-28T04:47:33;103293.44;;;13.00;48.66
55656;BME280;41530;52.382;5.270;2023-01-28T04:49:59;103295.22;;;13.00;48.57
55656;BME280;41530;52.382;5.270;2023-01-28T04:52:26;103285.50;;;13.00;48.49
55656;BME280;41530;52.382;5.270;2023-01-28T04:54:53;103284.63;;;13.00;48.58
55656;BME280;41530;52.382;5.270;2023-01-28T04:57:20;103289.00;;;13.01;48.50
55656;BME280;41530;52.382;5.270;2023-01-28T04:59:46;103293.47;;;12.99;48.59
55656;BME280;41530;52.382;5.270;2023-01-28T05:02:13;103289.91;;;13.00;48.57
55656;BME280;41530;52.382;5.270;2023-01-28T05:04:40;103302.22;;;13.01;48.74
55656;BME280;41530;52.382;5.270;2023-01-28T05:07:07;103305.72;;;13.01;48.94
55656;BME280;41530;52.382;5.270;2023-01-28T05:09:33;103308.41;;;13.00;48.64
55656;BME280;41530;52.382;5.270;2023-01-28T05:12:00;103297.00;;;12.99;48.76
55656;BME280;41530;52.382;5.270;2023-01-28T05:14:26;103304.06;;;12.99;48.53
55656;BME280;41530;52.382;5.270;2023-01-28T05:16:54;103306.75;;;12.97;48.37
55656;BME280;41530;52.382;5.270;2023-01-28T05:19:20;103308.53;;;12.97;48.51
55656;BME280;41530;52.382;5.270;2023-01-28T05:21:47;103306.75;;;12.97;48.56
55656;BME280;41530;52.382;5.270;2023-01-28T05:24:14;103302.38;;;12.96;48.81
55656;BME280;41530;52.382;5.270;2023-01-28T05:26:41;103298.03;;;12.95;48.65
55656;BME280;41530;52.382;5.270;2023-01-28T05:29:09;103295.38;;;12.95;48.49
55656;BME280;41530;52.382;5.270;2023-01-28T05:31:36;103282.28;;;12.92;48.47
55656;BME280;41530;52.382;5.270;2023-01-28T05:34:02;103294.53;;;12.95;48.37
55656;BME280;41530;52.382;5.270;2023-01-28T05:36:29;103289.28;;;12.93;48.40
55656;BME280;41530;52.382;5.270;2023-01-28T05:38:56;103291.88;;;12.95;48.43
55656;BME280;41530;52.382;5.270;2023-01-28T05:41:22;103284.00;;;12.93;48.55
55656;BME280;41530;52.382;5.270;2023-01-28T05:43:49;103290.97;;;12.96;48.62
55656;BME280;41530;52.382;5.270;2023-01-28T05:46:16;103290.03;;;12.97;48.15
55656;BME280;41530;52.382;5.270;2023-01-28T05:48:42;103293.47;;;12.99;48.45
55656;BME280;41530;52.382;5.270;2023-01-28T05:51:10;103290.78;;;13.00;48.29
55656;BME280;41530;52.382;5.270;2023-01-28T05:53:36;103299.50;;;13.02;48.37
55656;BME280;41530;52.382;5.270;2023-01-28T05:56:04;103304.75;;;13.04;48.33
55656;BME280;41530;52.382;5.270;2023-01-28T05:58:31;103296.72;;;13.05;48.13
55656;BME280;41530;52.382;5.270;2023-01-28T06:00:58;103288.78;;;13.05;48.38
55656;BME280;41530;52.382;5.270;2023-01-28T06:03:25;103286.94;;;13.07;48.06
55656;BME280;41530;52.382;5.270;2023-01-28T06:05:52;103296.59;;;13.08;47.98
55656;BME280;41530;52.382;5.270;2023-01-28T06:08:19;103294.81;;;13.09;48.17
55656;BME280;41530;52.382;5.270;2023-01-28T06:10:46;103286.88;;;13.09;48.28
55656;BME280;41530;52.382;5.270;2023-01-28T06:13:12;103290.41;;;13.09;48.09
55656;BME280;41530;52.382;5.270;2023-01-28T06:15:39;103294.81;;;13.09;47.98
55656;BME280;41530;52.382;5.270;2023-01-28T06:18:06;103287.75;;;13.09;48.12
55656;BME280;41530;52.382;5.270;2023-01-28T06:20:34;103288.63;;;13.10;48.16
55656;BME280;41530;52.382;5.270;2023-01-28T06:23:01;103290.41;;;13.09;48.07
55656;BME280;41530;52.382;5.270;2023-01-28T06:25:28;103285.97;;;13.10;48.09
55656;BME280;41530;52.382;5.270;2023-01-28T06:27:55;103307.06;;;13.11;47.98
55656;BME280;41530;52.382;5.270;2023-01-28T06:30:22;103305.34;;;13.10;47.86
55656;BME280;41530;52.382;5.270;2023-01-28T06:32:54;103307.06;;;13.11;48.00
55656;BME280;41530;52.382;5.270;2023-01-28T06:35:21;103305.34;;;13.10;47.79
55656;BME280;41530;52.382;5.270;2023-01-28T06:37:47;103307.06;;;13.11;47.91
55656;BME280;41530;52.382;5.270;2023-01-28T06:40:15;103312.34;;;13.11;47.92
55656;BME280;41530;52.382;5.270;2023-01-28T06:42:42;103312.34;;;13.11;47.70
55656;BME280;41530;52.382;5.270;2023-01-28T06:45:10;103304.41;;;13.11;47.64
55656;BME280;41530;52.382;5.270;2023-01-28T06:47:38;103310.63;;;13.10;47.73
55656;BME280;41530;52.382;5.270;2023-01-28T06:50:05;103309.75;;;13.10;47.96
55656;BME280;41530;52.382;5.270;2023-01-28T06:52:33;103312.41;;;13.10;47.63
55656;BME280;41530;52.382;5.270;2023-01-28T06:55:06;103306.25;;;13.09;47.66
55656;BME280;41530;52.382;5.270;2023-01-28T06:57:36;103295.69;;;13.09;47.78
55656;BME280;41530;52.382;5.270;2023-01-28T07:00:03;103307.13;;;13.10;47.76
55656;BME280;41530;52.382;5.270;2023-01-28T07:02:30;103307.13;;;13.10;47.58
55656;BME280;41530;52.382;5.270;2023-01-28T07:04:57;103308.03;;;13.09;47.70
55656;BME280;41530;52.382;5.270;2023-01-28T07:07:23;103300.22;;;13.06;47.60
55656;BME280;41530;52.382;5.270;2023-01-28T07:09:51;103314.19;;;13.09;47.73
55656;BME280;41530;52.382;5.270;2023-01-28T07:12:18;103312.47;;;13.08;47.84
55656;BME280;41530;52.382;5.270;2023-01-28T07:14:45;103320.44;;;13.07;47.76
55656;BME280;41530;52.382;5.270;2023-01-28T07:17:12;103320.44;;;13.07;47.52
55656;BME280;41530;52.382;5.270;2023-01-28T07:19:39;103328.38;;;13.07;47.51
55656;BME280;41530;52.382;5.270;2023-01-28T07:22:06;103322.22;;;13.06;47.58
55656;BME280;41530;52.382;5.270;2023-01-28T07:24:33;103321.38;;;13.06;47.52
55656;BME280;41530;52.382;5.270;2023-01-28T07:27:00;103312.56;;;13.05;47.37
55656;BME280;41530;52.382;5.270;2023-01-28T07:29:27;103312.56;;;13.05;47.35
55656;BME280;41530;52.382;5.270;2023-01-28T07:31:53;103318.88;;;13.03;47.27
55656;BME280;41530;52.382;5.270;2023-01-28T07:34:21;103327.59;;;13.05;47.69
55656;BME280;41530;52.382;5.270;2023-01-28T07:36:48;103325.88;;;13.04;47.63
55656;BME280;41530;52.382;5.270;2023-01-28T07:39:14;103325.03;;;13.03;47.56
55656;BME280;41530;52.382;5.270;2023-01-28T07:41:41;103333.81;;;13.04;47.36
55656;BME280;41530;52.382;5.270;2023-01-28T07:44:08;103339.97;;;13.04;47.38
55656;BME280;41530;52.382;5.270;2023-01-28T07:46:35;103337.38;;;13.03;47.45
55656;BME280;41530;52.382;5.270;2023-01-28T07:49:02;103332.16;;;13.01;47.43
55656;BME280;41530;52.382;5.270;2023-01-28T07:51:29;103337.44;;;13.01;47.63
55656;BME280;41530;52.382;5.270;2023-01-28T07:53:56;103337.44;;;13.01;47.45
55656;BME280;41530;52.382;5.270;2023-01-28T07:56:22;103336.56;;;13.01;47.35
55656;BME280;41530;52.382;5.270;2023-01-28T07:58:49;103340.06;;;13.01;47.74
55656;BME280;41530;52.382;5.270;2023-01-28T08:01:16;103339.31;;;12.98;47.66
55656;BME280;41530;52.382;5.270;2023-01-28T08:03:43;103344.50;;;13.01;48.00
55656;BME280;41530;52.382;5.270;2023-01-28T08:06:10;103346.16;;;13.03;48.28
55656;BME280;41530;52.382;5.270;2023-01-28T08:08:37;103343.53;;;13.03;47.96
55656;BME280;41530;52.382;5.270;2023-01-28T08:11:08;103351.38;;;13.05;47.87
55656;BME280;41530;52.382;5.270;2023-01-28T08:13:36;103347.88;;;13.04;47.85
55656;BME280;41530;52.382;5.270;2023-01-28T08:16:04;103344.28;;;13.05;47.95
55656;BME280;41530;52.382;5.270;2023-01-28T08:18:31;103352.31;;;13.04;47.94
55656;BME280;41530;52.382;5.270;2023-01-28T08:20:58;103357.59;;;13.04;47.79
55656;BME280;41530;52.382;5.270;2023-01-28T08:23:25;103362.00;;;13.03;47.86
55656;BME280;41530;52.382;5.270;2023-01-28T08:25:52;103364.66;;;13.03;47.74
55656;BME280;41530;52.382;5.270;2023-01-28T08:28:20;103361.22;;;13.01;48.00
55656;BME280;41530;52.382;5.270;2023-01-28T08:30:47;103368.16;;;13.04;48.15
55656;BME280;41530;52.382;5.270;2023-01-28T08:33:15;103368.16;;;13.04;48.30
55656;BME280;41530;52.382;5.270;2023-01-28T08:35:42;103383.00;;;13.06;48.10
55656;BME280;41530;52.382;5.270;2023-01-28T08:38:10;103383.88;;;13.07;48.25
55656;BME280;41530;52.382;5.270;2023-01-28T08:40:39;103377.72;;;13.06;47.21
55656;BME280;41530;52.382;5.270;2023-01-28T08:43:06;103365.31;;;13.08;47.70
55656;BME280;41530;52.382;5.270;2023-01-28T08:45:33;103362.63;;;13.10;47.60
55656;BME280;41530;52.382;5.270;2023-01-28T08:48:04;103369.63;;;13.11;47.29
55656;BME280;41530;52.382;5.270;2023-01-28T08:50:33;103373.13;;;13.11;47.01
55656;BME280;41530;52.382;5.270;2023-01-28T08:53:04;103371.34;;;13.12;47.60
55656;BME280;41530;52.382;5.270;2023-01-28T08:55:32;103373.91;;;13.15;47.09
55656;BME280;41530;52.382;5.270;2023-01-28T08:58:04;103374.72;;;13.17;47.06
55656;BME280;41530;52.382;5.270;2023-01-28T09:00:32;103379.09;;;13.18;47.34
55656;BME280;41530;52.382;5.270;2023-01-28T09:02:59;103371.75;;;13.25;46.86
55656;BME280;41530;52.382;5.270;2023-01-28T09:05:27;103383.72;;;13.33;46.90
55656;BME280;41530;52.382;5.270;2023-01-28T09:07:55;103383.31;;;13.44;46.90
55656;BME280;41530;52.382;5.270;2023-01-28T09:10:21;103389.13;;;13.52;46.64
55656;BME280;41530;52.382;5.270;2023-01-28T09:12:48;103383.44;;;13.61;46.78
55656;BME280;41530;52.382;5.270;2023-01-28T09:15:16;103399.88;;;13.69;46.91
55656;BME280;41530;52.382;5.270;2023-01-28T09:17:43;103403.03;;;13.77;46.98
55656;BME280;41530;52.382;5.270;2023-01-28T09:20:11;103408.94;;;13.84;47.11
55656;BME280;41530;52.382;5.270;2023-01-28T09:22:38;103406.94;;;13.89;47.40
55656;BME280;41530;52.382;5.270;2023-01-28T09:25:05;103392.78;;;13.90;47.59
55656;BME280;41530;52.382;5.270;2023-01-28T09:27:33;103398.94;;;13.90;47.61
55656;BME280;41530;52.382;5.270;2023-01-28T09:29:59;103402.50;;;13.89;47.94
55656;BME280;41530;52.382;5.270;2023-01-28T09:32:26;103405.09;;;13.91;47.91
55656;BME280;41530;52.382;5.270;2023-01-28T09:34:53;103403.19;;;13.95;47.71
55656;BME280;41530;52.382;5.270;2023-01-28T09:37:20;103391.50;;;13.99;47.76
55656;BME280;41530;52.382;5.270;2023-01-28T09:39:46;103393.97;;;14.03;47.77
55656;BME280;41530;52.382;5.270;2023-01-28T09:45:16;103415.53;;;14.14;47.78
55656;BME280;41530;52.382;5.270;2023-01-28T09:47:50;103409.25;;;14.17;48.00
55656;BME280;41530;52.382;5.270;2023-01-28T09:50:25;103418.78;;;14.21;47.71
55656;BME280;41530;52.382;5.270;2023-01-28T09:55:38;103419.53;;;14.24;47.89
55656;BME280;41530;52.382;5.270;2023-01-28T09:58:11;103423.81;;;14.27;47.87
55656;BME280;41530;52.382;5.270;2023-01-28T10:09:17;103415.53;;;14.35;48.10
55656;BME280;41530;52.382;5.270;2023-01-28T10:14:29;103416.31;;;14.37;48.48
55656;BME280;41530;52.382;5.270;2023-01-28T10:17:10;103404.81;;;14.38;48.20
55656;BME280;41530;52.382;5.270;2023-01-28T10:19:42;103412.75;;;14.38;48.39
55656;BME280;41530;52.382;5.270;2023-01-28T10:22:20;103403.00;;;14.38;48.39
55656;BME280;41530;52.382;5.270;2023-01-28T10:24:57;103409.13;;;14.40;48.71
55656;BME280;41530;52.382;5.270;2023-01-28T10:27:32;103413.56;;;14.40;48.82
55656;BME280;41530;52.382;5.270;2023-01-28T10:30:23;103411.75;;;14.40;48.74
55656;BME280;41530;52.382;5.270;2023-01-28T10:33:05;103410.94;;;14.38;48.90
55656;BME280;41530;52.382;5.270;2023-01-28T10:35:40;103410.00;;;14.39;49.28
55656;BME280;41530;52.382;5.270;2023-01-28T10:38:11;103415.41;;;14.38;49.11
55656;BME280;41530;52.382;5.270;2023-01-28T10:40:42;103396.00;;;14.37;48.91
55656;BME280;41530;52.382;5.270;2023-01-28T10:43:09;103395.03;;;14.38;49.34
55656;BME280;41530;52.382;5.270;2023-01-28T10:45:51;103373.03;;;14.38;48.65
55656;BME280;41530;52.382;5.270;2023-01-28T10:48:25;103366.94;;;14.36;48.38
55656;BME280;41530;52.382;5.270;2023-01-28T10:50:59;103366.94;;;14.36;48.86
55656;BME280;41530;52.382;5.270;2023-01-28T10:53:40;103366.88;;;14.37;48.84
55656;BME280;41530;52.382;5.270;2023-01-28T10:56:10;103354.63;;;14.35;48.86
55656;BME280;41530;52.382;5.270;2023-01-28T11:01:57;103334.28;;;14.35;49.48
55656;BME280;41530;52.382;5.270;2023-01-28T11:04:28;103324.63;;;14.34;49.49
55656;BME280;41530;52.382;5.270;2023-01-28T11:06:59;103325.50;;;14.35;50.18
55656;BME280;41530;52.382;5.270;2023-01-28T11:09:31;103324.63;;;14.34;50.36
55656;BME280;41530;52.382;5.270;2023-01-28T11:12:20;103321.91;;;14.36;50.29
55656;BME280;41530;52.382;5.270;2023-01-28T11:14:51;103320.19;;;14.35;50.11
55656;BME280;41530;52.382;5.270;2023-01-28T11:17:19;103310.53;;;14.34;50.20
55656;BME280;41530;52.382;5.270;2023-01-28T11:19:48;103300.81;;;14.34;50.36
55656;BME280;41530;52.382;5.270;2023-01-28T11:22:34;103301.72;;;14.33;49.88
55656;BME280;41530;52.382;5.270;2023-01-28T11:25:05;103296.44;;;14.33;50.45
55656;BME280;41530;52.382;5.270;2023-01-28T11:27:39;103290.22;;;14.34;50.53
55656;BME280;41530;52.382;5.270;2023-01-28T11:32:55;103293.72;;;14.35;49.83
55656;BME280;41530;52.382;5.270;2023-01-28T11:35:24;103292.00;;;14.34;50.14
55656;BME280;41530;52.382;5.270;2023-01-28T11:37:53;103301.66;;;14.35;50.34
55656;BME280;41530;52.382;5.270;2023-01-28T11:40:20;103292.84;;;14.34;50.37
55656;BME280;41530;52.382;5.270;2023-01-28T11:42:52;103308.69;;;14.36;49.63
55656;BME280;41530;52.382;5.270;2023-01-28T11:45:27;103313.13;;;14.35;49.95
55656;BME280;41530;52.382;5.270;2023-01-28T11:48:06;103308.75;;;14.34;50.13
55656;BME280;41530;52.382;5.270;2023-01-28T11:50:47;103312.19;;;14.36;49.79
55656;BME280;41530;52.382;5.270;2023-01-28T11:56:26;103320.13;;;14.36;50.04
55656;BME280;41530;52.382;5.270;2023-01-28T12:04:47;103328.81;;;14.40;50.46
55656;BME280;41530;52.382;5.270;2023-01-28T12:07:41;103337.59;;;14.40;50.67
55656;BME280;41530;52.382;5.270;2023-01-28T12:10:15;103329.38;;;14.46;50.39
55656;BME280;41530;52.382;5.270;2023-01-28T12:12:58;103322.31;;;14.47;50.34
55656;BME280;41530;52.382;5.270;2023-01-28T12:21:10;103318.72;;;14.48;50.18
55656;BME280;41530;52.382;5.270;2023-01-28T12:24:13;103305.41;;;14.49;50.12
55656;BME280;41530;52.382;5.270;2023-01-28T12:33:24;103280.66;;;14.50;50.30
55656;BME280;41530;52.382;5.270;2023-01-28T12:42:12;103258.44;;;14.53;50.09
55656;BME280;41530;52.382;5.270;2023-01-28T12:47:38;103251.34;;;14.53;49.94
55656;BME280;41530;52.382;5.270;2023-01-28T12:50:16;103252.13;;;14.55;50.62
55656;BME280;41530;52.382;5.270;2023-01-28T12:52:51;103255.63;;;14.56;50.46
55656;BME280;41530;52.382;5.270;2023-01-28T12:55:24;103255.63;;;14.56;50.39
55656;BME280;41530;52.382;5.270;2023-01-28T12:57:57;103254.78;;;14.55;50.49
55656;BME280;41530;52.382;5.270;2023-01-28T13:00:25;103250.34;;;14.56;50.77
55656;BME280;41530;52.382;5.270;2023-01-28T13:06:01;103236.31;;;14.54;50.42
55656;BME280;41530;52.382;5.270;2023-01-28T13:08:30;103240.59;;;14.56;50.32
55656;BME280;41530;52.382;5.270;2023-01-28T13:11:01;103228.28;;;14.55;50.32
55656;BME280;41530;52.382;5.270;2023-01-28T13:13:36;103220.28;;;14.57;50.49
55656;BME280;41530;52.382;5.270;2023-01-28T13:16:06;103221.13;;;14.57;50.75
55656;BME280;41530;52.382;5.270;2023-01-28T13:21:31;103226.44;;;14.57;50.61
55656;BME280;41530;52.382;5.270;2023-01-28T13:31:43;103234.16;;;14.62;50.67
55656;BME280;41530;52.382;5.270;2023-01-28T13:37:39;103247.34;;;14.64;50.21
55656;BME280;41530;52.382;5.270;2023-01-28T13:42:39;103244.69;;;14.64;50.38
55656;BME280;41530;52.382;5.270;2023-01-28T13:47:45;103239.28;;;14.65;50.46
55656;BME280;41530;52.382;5.270;2023-01-28T13:50:24;103242.78;;;14.66;50.57
55656;BME280;41530;52.382;5.270;2023-01-28T13:53:04;103245.44;;;14.66;50.45
55656;BME280;41530;52.382;5.270;2023-01-28T13:55:39;103257.75;;;14.67;50.76
55656;BME280;41530;52.382;5.270;2023-01-28T13:58:30;103264.09;;;14.64;50.81
55656;BME280;41530;52.382;5.270;2023-01-28T14:15:56;103249.06;;;14.65;51.02
55656;BME280;41530;52.382;5.270;2023-01-28T14:18:26;103247.16;;;14.67;51.40
55656;BME280;41530;52.382;5.270;2023-01-28T14:20:56;103248.09;;;14.66;51.19
55656;BME280;41530;52.382;5.270;2023-01-28T14:23:25;103242.78;;;14.66;51.21
55656;BME280;41530;52.382;5.270;2023-01-28T14:26:17;103244.50;;;14.67;51.23
55656;BME280;41530;52.382;5.270;2023-01-28T14:29:01;103231.25;;;14.67;51.13
55656;BME280;41530;52.382;5.270;2023-01-28T14:31:35;103236.56;;;14.67;51.34
55656;BME280;41530;52.382;5.270;2023-01-28T14:34:08;103237.50;;;14.66;51.41
55656;BME280;41530;52.382;5.270;2023-01-28T14:36:43;103237.41;;;14.67;51.65
55656;BME280;41530;52.382;5.270;2023-01-28T14:39:15;103242.72;;;14.67;51.50
55656;BME280;41530;52.382;5.270;2023-01-28T14:41:46;103239.28;;;14.65;51.39
55656;BME280;41530;52.382;5.270;2023-01-28T14:44:23;103246.22;;;14.68;51.54
55656;BME280;41530;52.382;5.270;2023-01-28T14:47:29;103244.50;;;14.67;51.76
55656;BME280;41530;52.382;5.270;2023-01-28T14:50:41;103267.50;;;14.66;51.44
55656;BME280;41530;52.382;5.270;2023-01-28T14:53:29;103265.72;;;14.67;51.08
55656;BME280;41530;52.382;5.270;2023-01-28T14:58:47;103262.56;;;14.77;50.98
55656;BME280;41530;52.382;5.270;2023-01-28T15:01:24;103267.69;;;14.80;50.90